Startpagina
METAR-TAF:

METAR-TAF

Vliegvelden :

Terrace, Brits Columbia, Canada

breedte: 54-28N, lengte: 128-35W, hoogte: 217 m

Actueel weer

Dit bericht is 24 minuten geleden gemaakt, om 20:00 UTC
Wind 8 kt uit het noorden, variërend tussen het westen en het oostnoordoosten
Temperatuur 8°C
Vochtigheid 46%
Druk 1024 hPa
Zicht: 32.2 km
Weinig wolken op 4000 ft

METAR: CYXT 102000Z 36008KT 280V060 20SM FEW040 08/M03 A3023 RMK CU2 SLP246

Tijdstip: 13:24 (20:24 UTC)

Verwachting

Dit bericht is 1 uur en het 46 minuten geleden gemaakt, om 18:38 UTC
Verwachting geldig van 10 om 19 UTC tot 11 om 07 UTC
Wind 12 kt uit het noorden met uitschieters tot 22 kt
Zicht: 10 km
Weinig wolken op 3000 ft
Verspreide wolken op 5000 ft

TAF: CYXT 101838Z 1019/1107 01012G22KT P6SM FEW030 SCT050 RMK NXT FCST BY 110100Z

Waarnemingen en weersverwachtingen van meer dan 4000 vliegvelden (METAR en TAF).

De beschikbare stations zijn de gele en rode punten op de kaart.

Ga met uw muis naar het station om de naam te zien.

Klik dan om waarnemingen en weersverwachtingen te zien.

kaart wijzigen: klik op de groene knoppen met een zwart kruis om in te zoomen, op de groene knop met een streepje om uit te zoomen of op de groene pijlen voor aangrenzende kaarten.


METAR-TAF: